Skip Navigation Links Skip Navigation Links

Current Weather

Carl R Keller Field, Port Clinton, Ohio

For information only: do not use for flight planning or navigation.
Latest weather
Observation time Thursday, October 17, 2019 1:35 AM EDT
Local time Thursday, October 17, 2019 1:54 AM EDT
Flight conditions Visual Meteorological Conditions
Winds
Wind direction Northwest (310°)
Wind speed 21 mph
Wind gusting to 31 mph
Visibility 10 mi.
Sky condition
Ceiling 3,400 ft. overcast
Cloud layer scattered clouds 2,700 ft.
Cloud layer overcast 3,400 ft.
Temperature 48°F
Dewpoint 39°F
Altimeter 29.79 in.Hg
Derived measurements
Relative humidity 71%
Wind chill 41°F
Density altitude 142 ft.
Remarks
Fully automated report.
Automated weather observing station with precipitation discriminator.
METAR KPCW 170535Z AUTO 31018G27KT 10SM SCT027 OVC034 09/04 A2979 RMK AO2

Settings

Location code

InnerDrive.Weather 4.0.6770.0 Release CLR 4.0.30319.42000
Copyright ©2018 Inner Drive Technology. All rights reserved. Portions Copyright ©1986-2018 David Braverman.

Find weather

Site navigation


Skip Navigation Links

Place info

Page info

PayPal - The safer, easier way to pay online!

Return home.

Copyright ©2019 Inner Drive Technology. Purveyors of fine, hand-crafted computer software. Page printed 2019-10-17T05:54:51 UTC.